Terminal Aerodrome Forecast
Issued by NWS Cleveland, OH

Home | Current Version | Previous Version | Text Only | Print | Product List | Glossary Off
Versions: 1 2 3 4 5 6 7 8 9 10 11 12 13 14 15 16 17 18 19 20 21 22

000
FTUS41 KCLE 242300
TAFYNG
TAF
KYNG 242330Z 2500/2524 06005KT P6SM SCT250
     FM250800 12010KT P6SM SCT050 BKN120
     FM251200 14012G18KT 6SM -RA BR SCT025 OVC050 WS015/18045KT
      TEMPO 2512/2514 4SM -RA BR OVC025
     FM251400 16012KT 2SM -RA BR OVC012 WS015/20050KT
     FM251600 18014G22KT 5SM -RA BR OVC012
     FM252000 21014G22KT P6SM BKN025
     FM252200 24012KT P6SM BKN050=

USA.gov is the U.S. government's official web portal to all federal, state and local government web resources and services.